createdAt,value
2022-08-27T00:00:19.569Z,19.23
2022-08-27T00:03:22.422Z,19.13
2022-08-27T00:06:26.275Z,19.15
2022-08-27T00:09:30.234Z,19.00
2022-08-27T00:12:33.088Z,19.08
2022-08-27T00:15:36.913Z,19.09
2022-08-27T00:18:41.268Z,19.11
2022-08-27T00:21:44.474Z,19.11
2022-08-27T00:24:48.983Z,19.05
2022-08-27T00:27:52.501Z,19.05
2022-08-27T00:30:58.535Z,18.95
2022-08-27T00:34:01.878Z,18.93
2022-08-27T00:37:06.642Z,18.85
2022-08-27T00:40:17.227Z,18.87
2022-08-27T00:43:45.283Z,18.71
2022-08-27T00:46:52.810Z,18.76
2022-08-27T00:50:04.252Z,18.70
2022-08-27T00:53:18.098Z,18.63
2022-08-27T00:56:24.986Z,18.55
2022-08-27T00:59:31.031Z,18.51
2022-08-27T01:02:33.689Z,18.40
2022-08-27T01:05:38.558Z,18.39
2022-08-27T01:08:46.255Z,18.34
2022-08-27T01:11:49.474Z,18.26
2022-08-27T01:14:52.642Z,18.24
2022-08-27T01:17:57.460Z,18.19
2022-08-27T01:21:10.684Z,18.20
2022-08-27T01:24:24.623Z,18.11
2022-08-27T01:27:31.538Z,18.03
2022-08-27T01:30:35.112Z,18.04
2022-08-27T01:33:38.396Z,18.03
2022-08-27T01:36:41.392Z,17.95
2022-08-27T01:39:44.575Z,17.85
2022-08-27T01:42:52.297Z,17.89
2022-08-27T01:45:54.960Z,17.91
2022-08-27T01:48:57.946Z,17.95
2022-08-27T01:52:00.553Z,17.96
2022-08-27T01:55:07.217Z,17.94
2022-08-27T01:58:13.239Z,17.91
2022-08-27T02:01:18.441Z,17.94
2022-08-27T02:04:21.881Z,17.85
2022-08-27T02:07:25.819Z,17.86
2022-08-27T02:10:32.499Z,17.81
2022-08-27T02:13:35.670Z,17.67
2022-08-27T02:16:41.275Z,17.74
2022-08-27T02:19:54.818Z,17.82
2022-08-27T02:22:58.487Z,17.74
2022-08-27T02:26:01.166Z,17.76
2022-08-27T02:29:05.320Z,17.79
2022-08-27T02:32:07.961Z,17.60
2022-08-27T02:35:25.503Z,17.52
2022-08-27T02:38:28.099Z,17.48
2022-08-27T02:41:31.477Z,17.43
2022-08-27T02:44:35.564Z,17.28
2022-08-27T02:47:38.631Z,17.40
2022-08-27T02:50:42.162Z,17.39
2022-08-27T02:53:45.064Z,17.35
2022-08-27T02:56:48.403Z,17.25
2022-08-27T02:59:52.280Z,17.32
2022-08-27T03:02:55.585Z,17.21
2022-08-27T03:05:59.138Z,17.33
2022-08-27T03:09:01.814Z,17.30
2022-08-27T03:12:05.574Z,17.27
2022-08-27T03:15:11.479Z,17.22
2022-08-27T03:18:18.271Z,17.15
2022-08-27T03:21:25.030Z,17.02
2022-08-27T03:24:27.961Z,17.05
2022-08-27T03:27:32.469Z,16.98
2022-08-27T03:30:35.357Z,16.78
2022-08-27T03:33:40.642Z,16.82
2022-08-27T03:36:43.775Z,16.77
2022-08-27T03:39:49.412Z,16.74
2022-08-27T03:42:52.339Z,16.73
2022-08-27T03:46:01.296Z,16.67
2022-08-27T03:49:08.585Z,16.57
2022-08-27T03:52:16.751Z,16.58
2022-08-27T03:55:19.790Z,16.57
2022-08-27T03:58:22.475Z,16.56
2022-08-27T04:01:25.389Z,16.49
2022-08-27T04:04:28.530Z,16.44
2022-08-27T04:07:32.486Z,16.54
2022-08-27T04:10:38.941Z,16.57
2022-08-27T04:13:41.587Z,16.54
2022-08-27T04:16:44.448Z,16.57
2022-08-27T04:19:47.070Z,16.78
2022-08-27T04:22:49.967Z,16.91
2022-08-27T04:25:52.579Z,16.98
2022-08-27T04:28:58.029Z,16.98
2022-08-27T04:32:01.214Z,17.00
2022-08-27T04:35:04.571Z,17.07
2022-08-27T04:38:07.470Z,17.12
2022-08-27T04:41:20.022Z,17.07
2022-08-27T04:44:23.822Z,17.14
2022-08-27T04:47:26.697Z,17.24
2022-08-27T04:50:29.389Z,17.39
2022-08-27T04:53:32.924Z,17.47
2022-08-27T04:56:37.890Z,17.63
2022-08-27T04:59:40.731Z,17.97
2022-08-27T05:02:43.362Z,18.45
2022-08-27T05:05:47.497Z,18.93
2022-08-27T05:08:51.790Z,19.43
2022-08-27T05:11:55.617Z,20.05
2022-08-27T05:14:58.294Z,20.57
2022-08-27T05:18:01.316Z,21.05
2022-08-27T05:21:05.967Z,21.44
2022-08-27T05:24:09.627Z,22.01
2022-08-27T05:27:13.086Z,22.31
2022-08-27T05:30:16.262Z,22.76
2022-08-27T05:33:21.892Z,23.14
2022-08-27T05:36:28.151Z,23.37
2022-08-27T05:39:30.864Z,23.97
2022-08-27T05:42:34.408Z,24.28
2022-08-27T05:45:48.565Z,24.64
2022-08-27T05:48:52.319Z,24.95
2022-08-27T05:51:55.441Z,25.79
2022-08-27T05:54:58.422Z,26.44
2022-08-27T05:58:01.050Z,26.88
2022-08-27T06:01:10.104Z,27.56
2022-08-27T06:04:17.612Z,28.04
2022-08-27T06:07:21.044Z,28.80
2022-08-27T06:10:24.021Z,29.12
2022-08-27T06:13:26.572Z,29.16
2022-08-27T06:16:29.524Z,29.51
2022-08-27T06:19:32.150Z,30.07
2022-08-27T06:22:38.313Z,30.03
2022-08-27T06:25:42.084Z,30.27
2022-08-27T06:28:45.820Z,30.41
2022-08-27T06:31:50.452Z,30.04
2022-08-27T06:34:53.635Z,30.61
2022-08-27T06:37:56.233Z,30.96
2022-08-27T06:40:59.223Z,30.59
2022-08-27T06:44:02.587Z,30.74
2022-08-27T06:47:05.530Z,30.61
2022-08-27T06:50:08.490Z,31.58
2022-08-27T06:53:12.155Z,31.45
2022-08-27T06:56:16.908Z,31.11
2022-08-27T06:59:20.737Z,31.86
2022-08-27T07:02:23.421Z,31.51
2022-08-27T07:05:26.763Z,31.82
2022-08-27T07:08:29.673Z,32.23
2022-08-27T07:11:33.275Z,32.72
2022-08-27T07:14:38.287Z,32.48
2022-08-27T07:17:41.874Z,32.15
2022-08-27T07:20:44.532Z,32.09
2022-08-27T07:23:49.085Z,32.74
2022-08-27T07:26:51.764Z,32.67
2022-08-27T07:29:54.665Z,32.57
2022-08-27T07:32:57.286Z,33.11
2022-08-27T07:36:00.211Z,32.83
2022-08-27T07:39:02.838Z,32.36
2022-08-27T07:42:24.349Z,33.18
2022-08-27T07:45:28.162Z,33.35
2022-08-27T07:48:33.668Z,33.05
2022-08-27T07:51:39.540Z,32.55
2022-08-27T07:54:42.994Z,32.54
2022-08-27T07:57:48.026Z,33.02
2022-08-27T08:00:50.983Z,33.22
2022-08-27T08:03:53.863Z,33.18
2022-08-27T08:06:56.790Z,32.99
2022-08-27T08:10:00.107Z,33.19
2022-08-27T08:13:03.417Z,33.38
2022-08-27T08:16:06.950Z,33.04
2022-08-27T08:19:09.616Z,33.36
2022-08-27T08:22:12.711Z,33.70
2022-08-27T08:25:16.668Z,33.62
2022-08-27T08:28:19.640Z,33.00
2022-08-27T08:31:24.221Z,32.97
2022-08-27T08:34:28.917Z,32.27
2022-08-27T08:37:31.562Z,33.08
2022-08-27T08:40:44.130Z,32.51
2022-08-27T08:43:51.552Z,32.80
2022-08-27T08:46:59.938Z,32.79
2022-08-27T08:50:19.933Z,32.74
2022-08-27T08:53:41.061Z,33.01
2022-08-27T08:57:06.226Z,32.03
2022-08-27T09:00:12.769Z,32.35
2022-08-27T09:03:16.571Z,32.65
2022-08-27T09:06:40.400Z,32.22
2022-08-27T09:09:58.674Z,32.12
2022-08-27T09:13:05.305Z,32.33
2022-08-27T09:16:08.095Z,32.39
2022-08-27T09:19:12.988Z,32.46
2022-08-27T09:22:38.764Z,32.10
2022-08-27T09:25:43.495Z,30.94
2022-08-27T09:29:04.690Z,31.65
2022-08-27T09:32:09.450Z,31.47
2022-08-27T09:35:13.600Z,31.72
2022-08-27T09:38:30.198Z,31.49
2022-08-27T09:41:40.237Z,31.25
2022-08-27T09:44:52.993Z,31.84
2022-08-27T09:48:16.246Z,31.55
2022-08-27T09:51:27.269Z,31.50
2022-08-27T09:54:41.023Z,31.79
2022-08-27T09:57:43.945Z,31.99
2022-08-27T10:00:47.836Z,32.02
2022-08-27T10:03:51.094Z,31.72
2022-08-27T10:06:53.811Z,31.99
2022-08-27T10:10:19.664Z,31.26
2022-08-27T10:13:25.953Z,31.45
2022-08-27T10:16:52.942Z,31.29
2022-08-27T10:20:29.585Z,31.61
2022-08-27T10:23:58.050Z,31.38
2022-08-27T10:27:09.706Z,31.91
2022-08-27T10:30:17.379Z,31.74
2022-08-27T10:33:36.426Z,31.33
2022-08-27T10:37:21.550Z,31.82
2022-08-27T10:40:59.190Z,31.54
2022-08-27T10:44:07.789Z,31.64
2022-08-27T10:47:35.303Z,31.98
2022-08-27T10:51:11.860Z,32.19
2022-08-27T10:54:39.564Z,31.21
2022-08-27T10:58:08.330Z,31.51
2022-08-27T11:01:31.381Z,31.67
2022-08-27T11:04:48.445Z,31.67
2022-08-27T11:07:59.706Z,31.61
2022-08-27T11:11:49.814Z,31.61
2022-08-27T11:14:43.203Z,31.87
2022-08-27T11:17:55.215Z,31.70
2022-08-27T11:21:01.758Z,31.74
2022-08-27T11:24:07.402Z,31.64
2022-08-27T11:27:10.843Z,31.91
2022-08-27T11:30:46.046Z,32.02
2022-08-27T11:33:48.795Z,32.13
2022-08-27T11:37:10.601Z,31.86
2022-08-27T11:40:38.451Z,32.02
2022-08-27T11:43:44.913Z,31.82
2022-08-27T11:46:52.068Z,31.84
2022-08-27T11:49:59.157Z,31.60
2022-08-27T11:53:05.927Z,31.88
2022-08-27T11:56:21.093Z,31.88
2022-08-27T11:59:26.639Z,31.91
2022-08-27T12:02:30.134Z,31.84
2022-08-27T12:05:56.250Z,31.89
2022-08-27T12:09:14.409Z,31.91
2022-08-27T12:12:21.987Z,31.99
2022-08-27T12:15:50.999Z,32.04
2022-08-27T12:18:57.058Z,32.31
2022-08-27T12:22:11.744Z,32.44
2022-08-27T12:25:22.260Z,32.26
2022-08-27T12:28:26.812Z,32.37
2022-08-27T12:31:30.116Z,32.65
2022-08-27T12:34:43.902Z,32.40
2022-08-27T12:37:50.933Z,32.31
2022-08-27T12:41:00.408Z,32.40
2022-08-27T12:44:05.014Z,32.34
2022-08-27T12:47:13.362Z,32.63
2022-08-27T12:50:26.286Z,32.30
2022-08-27T12:53:45.562Z,32.37
2022-08-27T12:57:03.992Z,32.41
2022-08-27T13:00:14.134Z,32.36
2022-08-27T13:03:38.202Z,32.33
2022-08-27T13:06:45.434Z,32.14
2022-08-27T13:09:48.328Z,32.29
2022-08-27T13:13:11.499Z,32.48
2022-08-27T13:16:14.725Z,32.65
2022-08-27T13:19:34.445Z,32.53
2022-08-27T13:22:39.759Z,32.61
2022-08-27T13:26:03.371Z,32.53
2022-08-27T13:29:07.523Z,32.42
2022-08-27T13:32:14.169Z,32.33
2022-08-27T13:35:18.918Z,32.13
2022-08-27T13:38:22.592Z,32.15
2022-08-27T13:41:36.520Z,31.99
2022-08-27T13:44:41.443Z,31.60
2022-08-27T13:47:52.229Z,31.63
2022-08-27T13:50:57.108Z,31.44
2022-08-27T13:54:15.647Z,31.21
2022-08-27T13:57:31.386Z,31.54
2022-08-27T14:00:34.814Z,31.54
2022-08-27T14:03:47.715Z,31.74
2022-08-27T14:06:50.818Z,31.90
2022-08-27T14:09:57.307Z,32.09
2022-08-27T14:13:06.516Z,32.20
2022-08-27T14:16:14.642Z,32.22
2022-08-27T14:19:33.187Z,32.02
2022-08-27T14:22:39.965Z,31.99
2022-08-27T14:25:42.599Z,31.79
2022-08-27T14:28:46.426Z,31.67
2022-08-27T14:31:49.178Z,31.45
2022-08-27T14:34:53.352Z,31.46
2022-08-27T14:37:56.278Z,31.52
2022-08-27T14:40:59.499Z,31.44
2022-08-27T14:44:03.304Z,31.18
2022-08-27T14:47:09.553Z,31.14
2022-08-27T14:50:13.583Z,31.15
2022-08-27T14:53:17.501Z,31.16
2022-08-27T14:56:21.293Z,31.23
2022-08-27T14:59:24.282Z,31.19
2022-08-27T15:02:27.111Z,30.87
2022-08-27T15:05:30.116Z,30.68
2022-08-27T15:08:34.973Z,30.53
2022-08-27T15:11:41.634Z,30.73
2022-08-27T15:14:44.476Z,30.70
2022-08-27T15:17:47.436Z,30.71
2022-08-27T15:20:50.438Z,30.75
2022-08-27T15:23:59.522Z,30.74
2022-08-27T15:27:02.246Z,30.71
2022-08-27T15:30:07.477Z,30.69
2022-08-27T15:33:10.199Z,30.61
2022-08-27T15:36:13.854Z,30.62
2022-08-27T15:39:16.437Z,30.69
2022-08-27T15:42:19.701Z,30.69
2022-08-27T15:45:25.841Z,30.51
2022-08-27T15:48:32.254Z,30.55
2022-08-27T15:51:35.878Z,30.40
2022-08-27T15:54:39.285Z,30.33
2022-08-27T15:57:41.932Z,30.17
2022-08-27T16:00:46.515Z,30.16
2022-08-27T16:03:50.118Z,30.14
2022-08-27T16:06:53.239Z,30.12
2022-08-27T16:09:56.392Z,30.02
2022-08-27T16:12:59.083Z,29.97
2022-08-27T16:16:02.073Z,29.95
2022-08-27T16:19:06.250Z,29.81
2022-08-27T16:22:09.137Z,29.73
2022-08-27T16:25:16.483Z,29.80
2022-08-27T16:28:21.820Z,29.80
2022-08-27T16:31:24.598Z,29.68
2022-08-27T16:34:29.843Z,29.67
2022-08-27T16:37:32.584Z,29.64
2022-08-27T16:40:39.879Z,29.52
2022-08-27T16:43:45.101Z,29.45
2022-08-27T16:46:47.998Z,29.23
2022-08-27T16:50:09.421Z,29.18
2022-08-27T16:53:26.283Z,29.05
2022-08-27T16:56:28.972Z,28.89
2022-08-27T16:59:31.937Z,28.67
2022-08-27T17:02:35.910Z,28.65
2022-08-27T17:05:39.046Z,28.52
2022-08-27T17:08:47.666Z,28.27
2022-08-27T17:11:57.086Z,28.12
2022-08-27T17:15:00.844Z,27.97
2022-08-27T17:18:04.018Z,27.83
2022-08-27T17:21:06.659Z,27.62
2022-08-27T17:24:12.587Z,27.45
2022-08-27T17:27:17.879Z,27.25
2022-08-27T17:30:21.300Z,26.94
2022-08-27T17:33:45.834Z,26.74
2022-08-27T17:36:49.683Z,26.51
2022-08-27T17:39:52.818Z,26.45
2022-08-27T17:42:55.952Z,26.49
2022-08-27T17:45:59.283Z,26.42
2022-08-27T17:49:02.885Z,26.23
2022-08-27T17:52:11.043Z,25.94
2022-08-27T17:55:13.970Z,25.82
2022-08-27T17:58:16.685Z,25.69
2022-08-27T18:01:24.140Z,25.52
2022-08-27T18:04:31.323Z,25.24
2022-08-27T18:07:39.150Z,25.18
2022-08-27T18:10:43.749Z,25.06
2022-08-27T18:13:52.289Z,25.07
2022-08-27T18:16:55.663Z,24.98
2022-08-27T18:19:58.350Z,24.80
2022-08-27T18:23:03.078Z,24.67
2022-08-27T18:26:10.864Z,24.56
2022-08-27T18:29:15.295Z,24.47
2022-08-27T18:32:17.986Z,24.41
2022-08-27T18:35:26.899Z,24.51
2022-08-27T18:38:29.680Z,24.44
2022-08-27T18:41:32.836Z,24.46
2022-08-27T18:44:38.678Z,24.32
2022-08-27T18:47:42.883Z,24.24
2022-08-27T18:50:48.959Z,24.29
2022-08-27T18:53:52.137Z,24.20
2022-08-27T18:56:55.251Z,24.03
2022-08-27T18:59:58.263Z,23.81
2022-08-27T19:03:01.854Z,23.60
2022-08-27T19:06:09.009Z,23.41
2022-08-27T19:09:14.055Z,23.40
2022-08-27T19:12:17.794Z,23.37
2022-08-27T19:15:20.983Z,23.37
2022-08-27T19:18:26.472Z,23.29
2022-08-27T19:21:29.195Z,23.49
2022-08-27T19:24:32.155Z,23.69
2022-08-27T19:27:41.195Z,23.70
2022-08-27T19:30:45.210Z,23.72
2022-08-27T19:33:48.073Z,23.66
2022-08-27T19:36:51.562Z,23.57
2022-08-27T19:39:54.521Z,23.45
2022-08-27T19:42:57.524Z,23.37
2022-08-27T19:46:04.547Z,23.59
2022-08-27T19:49:07.720Z,23.87
2022-08-27T19:52:10.535Z,24.20
2022-08-27T19:55:14.493Z,24.48
2022-08-27T19:58:19.345Z,24.55
2022-08-27T20:01:22.351Z,24.65
2022-08-27T20:04:30.333Z,24.76
2022-08-27T20:07:35.276Z,24.82
2022-08-27T20:10:39.201Z,24.85
2022-08-27T20:13:50.390Z,24.75
2022-08-27T20:16:53.925Z,24.73
2022-08-27T20:19:58.945Z,24.76
2022-08-27T20:23:05.710Z,24.74
2022-08-27T20:26:08.426Z,24.86
2022-08-27T20:29:11.806Z,24.76
2022-08-27T20:32:19.518Z,24.69
2022-08-27T20:35:22.982Z,24.71
2022-08-27T20:38:25.631Z,24.65
2022-08-27T20:41:29.329Z,24.61
2022-08-27T20:44:32.345Z,24.56
2022-08-27T20:47:35.773Z,24.51
2022-08-27T20:50:38.796Z,24.58
2022-08-27T20:53:41.830Z,24.63
2022-08-27T20:56:52.228Z,24.65
2022-08-27T21:00:14.439Z,24.63
2022-08-27T21:03:17.170Z,24.54
2022-08-27T21:06:25.003Z,24.53
2022-08-27T21:09:29.055Z,24.47
2022-08-27T21:12:32.328Z,24.43
2022-08-27T21:15:35.035Z,24.31
2022-08-27T21:18:39.362Z,24.20
2022-08-27T21:21:42.001Z,24.20
2022-08-27T21:24:47.210Z,24.08
2022-08-27T21:27:49.847Z,24.05
2022-08-27T21:30:53.240Z,23.97
2022-08-27T21:33:55.874Z,23.96
2022-08-27T21:36:59.034Z,23.96
2022-08-27T21:40:02.113Z,23.55
2022-08-27T21:43:05.651Z,23.47
2022-08-27T21:46:08.298Z,23.30
2022-08-27T21:49:11.250Z,23.23
2022-08-27T21:52:14.409Z,23.22
2022-08-27T21:55:18.250Z,22.93
2022-08-27T21:58:25.795Z,22.83
2022-08-27T22:01:29.549Z,22.67
2022-08-27T22:04:32.517Z,22.24
2022-08-27T22:07:35.362Z,21.29
2022-08-27T22:10:40.373Z,20.51
2022-08-27T22:13:43.334Z,20.17
2022-08-27T22:16:46.223Z,19.96
2022-08-27T22:19:48.878Z,19.87
2022-08-27T22:22:52.428Z,19.82
2022-08-27T22:25:55.134Z,19.76
2022-08-27T22:28:58.125Z,19.84
2022-08-27T22:32:00.820Z,19.82
2022-08-27T22:35:04.048Z,19.81
2022-08-27T22:38:07.166Z,19.94
2022-08-27T22:41:13.677Z,19.90
2022-08-27T22:44:16.903Z,19.80
2022-08-27T22:47:19.909Z,19.86
2022-08-27T22:50:23.086Z,19.88
2022-08-27T22:53:26.238Z,19.91
2022-08-27T22:56:28.893Z,19.88
2022-08-27T22:59:31.923Z,19.82
2022-08-27T23:02:34.607Z,19.85
2022-08-27T23:05:41.589Z,19.89
2022-08-27T23:08:44.806Z,19.82
2022-08-27T23:11:48.062Z,19.81
2022-08-27T23:14:50.700Z,19.86
2022-08-27T23:17:53.954Z,19.85
2022-08-27T23:20:56.668Z,19.84
2022-08-27T23:24:00.816Z,19.76
2022-08-27T23:27:22.086Z,19.81
2022-08-27T23:30:26.854Z,19.72
2022-08-27T23:33:29.562Z,19.86
2022-08-27T23:36:32.541Z,19.92
2022-08-27T23:39:35.238Z,19.93
2022-08-27T23:42:40.832Z,19.81
2022-08-27T23:45:43.814Z,19.85
2022-08-27T23:48:46.759Z,19.88
2022-08-27T23:51:49.475Z,19.90
2022-08-27T23:54:52.610Z,19.94
2022-08-27T23:57:57.751Z,20.01
